sensor_id;sensor_type;location;lat;lon;timestamp;pressure;altitude;pressure_sealevel;temperature;humidity
35892;BME280;21993;42.672;23.296;2023-03-04T00:00:13;94749.16;;;7.95;75.94
35892;BME280;21993;42.672;23.296;2023-03-04T00:02:39;94743.78;;;7.97;75.51
35892;BME280;21993;42.672;23.296;2023-03-04T00:05:05;94753.44;;;8.07;76.14
35892;BME280;21993;42.672;23.296;2023-03-04T00:07:30;94750.09;;;7.94;76.78
35892;BME280;21993;42.672;23.296;2023-03-04T00:09:56;94746.28;;;7.98;76.91
35892;BME280;21993;42.672;23.296;2023-03-04T00:12:21;94749.03;;;8.08;75.66
35892;BME280;21993;42.672;23.296;2023-03-04T00:14:47;94743.56;;;8.11;76.06
35892;BME280;21993;42.672;23.296;2023-03-04T00:17:12;94738.09;;;8.14;75.60
35892;BME280;21993;42.672;23.296;2023-03-04T00:19:38;94736.06;;;8.06;75.76
35892;BME280;21993;42.672;23.296;2023-03-04T00:22:03;94729.41;;;8.13;75.50
35892;BME280;21993;42.672;23.296;2023-03-04T00:24:29;94725.84;;;8.03;75.63
35892;BME280;21993;42.672;23.296;2023-03-04T00:26:54;94727.91;;;8.00;75.83
35892;BME280;21993;42.672;23.296;2023-03-04T00:29:20;94740.13;;;7.99;76.91
35892;BME280;21993;42.672;23.296;2023-03-04T00:31:46;94730.84;;;8.06;75.42
35892;BME280;21993;42.672;23.296;2023-03-04T00:34:11;94735.47;;;8.03;75.90
35892;BME280;21993;42.672;23.296;2023-03-04T00:36:37;94724.31;;;8.01;75.56
35892;BME280;21993;42.672;23.296;2023-03-04T00:39:02;94732.16;;;8.01;76.59
35892;BME280;21993;42.672;23.296;2023-03-04T00:41:28;94725.59;;;8.06;76.16
35892;BME280;21993;42.672;23.296;2023-03-04T00:43:53;94731.56;;;7.97;75.86
35892;BME280;21993;42.672;23.296;2023-03-04T00:46:19;94731.44;;;7.99;76.33
35892;BME280;21993;42.672;23.296;2023-03-04T00:48:44;94731.34;;;8.00;75.65
35892;BME280;21993;42.672;23.296;2023-03-04T00:51:09;94728.25;;;7.95;76.72
35892;BME280;21993;42.672;23.296;2023-03-04T00:53:35;94724.91;;;7.93;76.94
35892;BME280;21993;42.672;23.296;2023-03-04T00:56:00;94725.25;;;7.88;76.15
35892;BME280;21993;42.672;23.296;2023-03-04T00:58:26;94724.66;;;7.96;76.10
35892;BME280;21993;42.672;23.296;2023-03-04T01:00:51;94730.84;;;7.95;76.07
35892;BME280;21993;42.672;23.296;2023-03-04T01:03:16;94722.06;;;7.96;76.32
35892;BME280;21993;42.672;23.296;2023-03-04T01:05:42;94714.91;;;7.98;76.01
35892;BME280;21993;42.672;23.296;2023-03-04T01:08:07;94725.50;;;7.97;75.78
35892;BME280;21993;42.672;23.296;2023-03-04T01:10:33;94719.81;;;7.92;75.26
35892;BME280;21993;42.672;23.296;2023-03-04T01:12:58;94723.25;;;8.03;75.39
35892;BME280;21993;42.672;23.296;2023-03-04T01:15:23;94723.38;;;8.02;76.31
35892;BME280;21993;42.672;23.296;2023-03-04T01:17:49;94717.75;;;8.06;74.84
35892;BME280;21993;42.672;23.296;2023-03-04T01:20:15;94716.59;;;7.99;75.22
35892;BME280;21993;42.672;23.296;2023-03-04T01:22:41;94715.88;;;7.97;75.02
35892;BME280;21993;42.672;23.296;2023-03-04T01:25:07;94717.66;;;7.97;74.73
35892;BME280;21993;42.672;23.296;2023-03-04T01:27:32;94714.47;;;7.93;75.12
35892;BME280;21993;42.672;23.296;2023-03-04T01:29:57;94710.06;;;7.94;75.54
35892;BME280;21993;42.672;23.296;2023-03-04T01:32:23;94707.59;;;7.92;75.52
35892;BME280;21993;42.672;23.296;2023-03-04T01:34:48;94700.31;;;7.96;75.36
35892;BME280;21993;42.672;23.296;2023-03-04T01:37:14;94701.38;;;8.04;74.26
35892;BME280;21993;42.672;23.296;2023-03-04T01:39:39;94701.50;;;8.03;74.58
35892;BME280;21993;42.672;23.296;2023-03-04T01:42:08;94702.34;;;8.03;74.29
35892;BME280;21993;42.672;23.296;2023-03-04T01:44:37;94689.59;;;7.99;74.04
35892;BME280;21993;42.672;23.296;2023-03-04T01:47:03;94681.44;;;7.92;74.11
35892;BME280;21993;42.672;23.296;2023-03-04T01:49:28;94688.69;;;8.00;73.65
35892;BME280;21993;42.672;23.296;2023-03-04T01:51:54;94691.41;;;7.87;73.61
35892;BME280;21993;42.672;23.296;2023-03-04T01:54:21;94684.75;;;7.94;73.49
35892;BME280;21993;42.672;23.296;2023-03-04T01:56:48;94680.84;;;7.88;73.91
35892;BME280;21993;42.672;23.296;2023-03-04T01:59:17;94692.13;;;7.89;74.28
35892;BME280;21993;42.672;23.296;2023-03-04T02:01:48;94689.19;;;7.82;74.00
35892;BME280;21993;42.672;23.296;2023-03-04T02:04:16;94688.94;;;7.85;74.92
35892;BME280;21993;42.672;23.296;2023-03-04T02:06:43;94690.00;;;7.83;73.87
35892;BME280;21993;42.672;23.296;2023-03-04T02:09:10;94688.44;;;7.80;73.58
35892;BME280;21993;42.672;23.296;2023-03-04T02:11:36;94686.31;;;7.74;73.91
35892;BME280;21993;42.672;23.296;2023-03-04T02:14:03;94681.81;;;7.76;74.08
35892;BME280;21993;42.672;23.296;2023-03-04T02:16:28;94685.50;;;7.74;74.82
35892;BME280;21993;42.672;23.296;2023-03-04T02:18:55;94679.31;;;7.75;73.87
35892;BME280;21993;42.672;23.296;2023-03-04T02:21:26;94677.41;;;7.77;74.08
35892;BME280;21993;42.672;23.296;2023-03-04T02:26:31;94678.81;;;7.81;73.67
35892;BME280;21993;42.672;23.296;2023-03-04T02:28:59;94679.44;;;7.84;73.95
35892;BME280;21993;42.672;23.296;2023-03-04T02:33:54;94671.47;;;7.75;74.83
35892;BME280;21993;42.672;23.296;2023-03-04T02:36:21;94676.09;;;7.71;74.92
35892;BME280;21993;42.672;23.296;2023-03-04T02:38:49;94670.63;;;7.63;74.42
35892;BME280;21993;42.672;23.296;2023-03-04T02:41:17;94670.50;;;7.65;73.80
35892;BME280;21993;42.672;23.296;2023-03-04T02:43:45;94669.94;;;7.61;74.27
35892;BME280;21993;42.672;23.296;2023-03-04T02:46:11;94665.78;;;7.58;74.27
35892;BME280;21993;42.672;23.296;2023-03-04T02:48:37;94664.22;;;7.56;75.03
35892;BME280;21993;42.672;23.296;2023-03-04T02:51:02;94656.03;;;7.60;74.17
35892;BME280;21993;42.672;23.296;2023-03-04T02:53:28;94667.44;;;7.59;74.45
35892;BME280;21993;42.672;23.296;2023-03-04T02:55:53;94664.00;;;7.59;74.15
35892;BME280;21993;42.672;23.296;2023-03-04T02:58:19;94655.47;;;7.57;74.43
35892;BME280;21993;42.672;23.296;2023-03-04T03:00:44;94654.13;;;7.51;74.30
35892;BME280;21993;42.672;23.296;2023-03-04T03:03:10;94661.16;;;7.51;74.93
35892;BME280;21993;42.672;23.296;2023-03-04T03:05:36;94666.25;;;7.52;74.66
35892;BME280;21993;42.672;23.296;2023-03-04T03:08:02;94663.97;;;7.48;74.38
35892;BME280;21993;42.672;23.296;2023-03-04T03:10:27;94666.00;;;7.55;74.21
35892;BME280;21993;42.672;23.296;2023-03-04T03:12:53;94663.28;;;7.46;75.34
35892;BME280;21993;42.672;23.296;2023-03-04T03:15:19;94660.06;;;7.42;75.47
35892;BME280;21993;42.672;23.296;2023-03-04T03:17:44;94671.34;;;7.43;75.18
35892;BME280;21993;42.672;23.296;2023-03-04T03:20:11;94667.28;;;7.39;75.34
35892;BME280;21993;42.672;23.296;2023-03-04T03:22:38;94668.50;;;7.34;75.46
35892;BME280;21993;42.672;23.296;2023-03-04T03:25:04;94674.53;;;7.35;75.38
35892;BME280;21993;42.672;23.296;2023-03-04T03:27:29;94671.44;;;7.30;75.92
35892;BME280;21993;42.672;23.296;2023-03-04T03:29:55;94661.13;;;7.28;76.05
35892;BME280;21993;42.672;23.296;2023-03-04T03:32:20;94657.81;;;7.26;76.05
35892;BME280;21993;42.672;23.296;2023-03-04T03:34:46;94660.03;;;7.31;76.00
35892;BME280;21993;42.672;23.296;2023-03-04T03:37:11;94660.03;;;7.31;75.45
35892;BME280;21993;42.672;23.296;2023-03-04T03:39:37;94662.78;;;7.29;75.82
35892;BME280;21993;42.672;23.296;2023-03-04T03:42:02;94660.66;;;7.34;75.28
35892;BME280;21993;42.672;23.296;2023-03-04T03:44:28;94654.59;;;7.34;75.39
35892;BME280;21993;42.672;23.296;2023-03-04T03:46:53;94648.44;;;7.24;74.81
35892;BME280;21993;42.672;23.296;2023-03-04T03:49:18;94653.88;;;7.21;75.80
35892;BME280;21993;42.672;23.296;2023-03-04T03:51:44;94665.38;;;7.18;76.31
35892;BME280;21993;42.672;23.296;2023-03-04T03:54:09;94646.66;;;7.24;75.86
35892;BME280;21993;42.672;23.296;2023-03-04T03:56:35;94648.31;;;7.25;75.62
35892;BME280;21993;42.672;23.296;2023-03-04T03:59:00;94642.00;;;7.28;74.62
35892;BME280;21993;42.672;23.296;2023-03-04T04:01:26;94647.34;;;7.26;74.89
35892;BME280;21993;42.672;23.296;2023-03-04T04:03:51;94644.75;;;7.15;74.64
35892;BME280;21993;42.672;23.296;2023-03-04T04:06:17;94649.22;;;7.13;75.87
35892;BME280;21993;42.672;23.296;2023-03-04T04:08:42;94638.44;;;7.07;75.52
35892;BME280;21993;42.672;23.296;2023-03-04T04:11:11;94644.72;;;7.04;75.52
35892;BME280;21993;42.672;23.296;2023-03-04T04:13:38;94646.50;;;7.03;75.58
35892;BME280;21993;42.672;23.296;2023-03-04T04:16:04;94635.84;;;7.07;75.23
35892;BME280;21993;42.672;23.296;2023-03-04T04:18:29;94632.97;;;7.10;75.08
35892;BME280;21993;42.672;23.296;2023-03-04T04:20:55;94637.59;;;7.06;74.96
35892;BME280;21993;42.672;23.296;2023-03-04T04:23:20;94635.69;;;6.97;75.34
35892;BME280;21993;42.672;23.296;2023-03-04T04:25:46;94637.38;;;6.98;75.70
35892;BME280;21993;42.672;23.296;2023-03-04T04:28:11;94642.31;;;6.90;75.44
35892;BME280;21993;42.672;23.296;2023-03-04T04:30:37;94635.31;;;6.90;75.43
35892;BME280;21993;42.672;23.296;2023-03-04T04:33:03;94646.22;;;6.84;76.13
35892;BME280;21993;42.672;23.296;2023-03-04T04:35:30;94646.72;;;7.00;75.81
35892;BME280;21993;42.672;23.296;2023-03-04T04:37:56;94641.72;;;6.97;74.99
35892;BME280;21993;42.672;23.296;2023-03-04T04:40:22;94642.66;;;6.96;75.17
35892;BME280;21993;42.672;23.296;2023-03-04T04:42:47;94644.81;;;6.91;75.64
35892;BME280;21993;42.672;23.296;2023-03-04T04:45:12;94645.03;;;6.88;75.83
35892;BME280;21993;42.672;23.296;2023-03-04T04:47:38;94642.41;;;6.88;75.14
35892;BME280;21993;42.672;23.296;2023-03-04T04:50:04;94636.84;;;6.82;75.28
35892;BME280;21993;42.672;23.296;2023-03-04T04:52:29;94641.13;;;6.83;76.04
35892;BME280;21993;42.672;23.296;2023-03-04T04:54:55;94649.41;;;6.76;75.52
35892;BME280;21993;42.672;23.296;2023-03-04T04:57:20;94644.28;;;6.75;75.57
35892;BME280;21993;42.672;23.296;2023-03-04T04:59:46;94650.81;;;6.81;74.93
35892;BME280;21993;42.672;23.296;2023-03-04T05:02:11;94651.28;;;6.74;75.00
35892;BME280;21993;42.672;23.296;2023-03-04T05:04:36;94658.03;;;6.66;75.98
35892;BME280;21993;42.672;23.296;2023-03-04T05:07:02;94652.06;;;6.64;75.18
35892;BME280;21993;42.672;23.296;2023-03-04T05:09:27;94672.00;;;6.65;75.53
35892;BME280;21993;42.672;23.296;2023-03-04T05:11:53;94667.44;;;6.56;75.35
35892;BME280;21993;42.672;23.296;2023-03-04T05:14:18;94665.78;;;6.55;75.75
35892;BME280;21993;42.672;23.296;2023-03-04T05:16:44;94673.59;;;6.55;75.37
35892;BME280;21993;42.672;23.296;2023-03-04T05:19:09;94669.13;;;6.57;75.95
35892;BME280;21993;42.672;23.296;2023-03-04T05:21:35;94667.25;;;6.59;76.46
35892;BME280;21993;42.672;23.296;2023-03-04T05:24:00;94669.59;;;6.62;76.49
35892;BME280;21993;42.672;23.296;2023-03-04T05:26:26;94671.19;;;6.64;75.99
35892;BME280;21993;42.672;23.296;2023-03-04T05:28:51;94670.56;;;6.61;76.62
35892;BME280;21993;42.672;23.296;2023-03-04T05:31:16;94675.44;;;6.65;76.19
35892;BME280;21993;42.672;23.296;2023-03-04T05:33:42;94668.78;;;6.61;76.13
35892;BME280;21993;42.672;23.296;2023-03-04T05:36:08;94680.75;;;6.64;75.68
35892;BME280;21993;42.672;23.296;2023-03-04T05:38:34;94678.38;;;6.61;76.07
35892;BME280;21993;42.672;23.296;2023-03-04T05:41:03;94680.75;;;6.64;76.06
35892;BME280;21993;42.672;23.296;2023-03-04T05:43:29;94686.44;;;6.58;76.46
35892;BME280;21993;42.672;23.296;2023-03-04T05:45:55;94690.00;;;6.57;76.12
35892;BME280;21993;42.672;23.296;2023-03-04T05:48:21;94684.44;;;6.61;76.50
35892;BME280;21993;42.672;23.296;2023-03-04T05:50:46;94695.09;;;6.58;76.28
35892;BME280;21993;42.672;23.296;2023-03-04T05:53:16;94685.25;;;6.62;76.01
35892;BME280;21993;42.672;23.296;2023-03-04T05:55:45;94690.88;;;6.68;76.17
35892;BME280;21993;42.672;23.296;2023-03-04T05:58:11;94694.75;;;6.63;76.03
35892;BME280;21993;42.672;23.296;2023-03-04T06:00:37;94691.81;;;6.67;75.42
35892;BME280;21993;42.672;23.296;2023-03-04T06:03:02;94700.03;;;6.74;76.88
35892;BME280;21993;42.672;23.296;2023-03-04T06:05:27;94703.34;;;6.76;76.46
35892;BME280;21993;42.672;23.296;2023-03-04T06:07:53;94700.63;;;6.77;76.81
35892;BME280;21993;42.672;23.296;2023-03-04T06:10:18;94698.13;;;6.76;76.53
35892;BME280;21993;42.672;23.296;2023-03-04T06:12:44;94696.94;;;6.80;77.00
35892;BME280;21993;42.672;23.296;2023-03-04T06:15:10;94697.22;;;6.88;77.27
35892;BME280;21993;42.672;23.296;2023-03-04T06:17:37;94707.75;;;6.87;77.29
35892;BME280;21993;42.672;23.296;2023-03-04T06:20:03;94699.03;;;6.99;76.98
35892;BME280;21993;42.672;23.296;2023-03-04T06:22:30;94705.41;;;6.95;77.23
35892;BME280;21993;42.672;23.296;2023-03-04T06:24:55;94710.75;;;6.93;77.66
35892;BME280;21993;42.672;23.296;2023-03-04T06:27:21;94711.34;;;6.97;77.33
35892;BME280;21993;42.672;23.296;2023-03-04T06:29:46;94714.47;;;7.02;77.21
35892;BME280;21993;42.672;23.296;2023-03-04T06:32:12;94715.66;;;7.09;77.20
35892;BME280;21993;42.672;23.296;2023-03-04T06:34:37;94713.88;;;7.10;77.03
35892;BME280;21993;42.672;23.296;2023-03-04T06:37:03;94707.38;;;7.15;77.11
35892;BME280;21993;42.672;23.296;2023-03-04T06:39:28;94710.34;;;7.22;76.81
35892;BME280;21993;42.672;23.296;2023-03-04T06:41:53;94719.84;;;7.23;76.68
35892;BME280;21993;42.672;23.296;2023-03-04T06:44:19;94715.25;;;7.38;77.43
35892;BME280;21993;42.672;23.296;2023-03-04T06:46:44;94721.31;;;7.38;77.37
35892;BME280;21993;42.672;23.296;2023-03-04T06:49:10;94721.91;;;7.42;76.27
35892;BME280;21993;42.672;23.296;2023-03-04T06:51:35;94718.81;;;7.48;76.83
35892;BME280;21993;42.672;23.296;2023-03-04T06:54:01;94721.34;;;7.49;75.50
35892;BME280;21993;42.672;23.296;2023-03-04T06:56:27;94720.38;;;7.50;75.97
35892;BME280;21993;42.672;23.296;2023-03-04T06:58:52;94715.41;;;7.58;76.18
35892;BME280;21993;42.672;23.296;2023-03-04T07:01:26;94720.75;;;7.57;74.59
35892;BME280;21993;42.672;23.296;2023-03-04T07:03:52;94715.16;;;7.61;75.47
35892;BME280;21993;42.672;23.296;2023-03-04T07:06:20;94722.66;;;7.66;74.83
35892;BME280;21993;42.672;23.296;2023-03-04T07:08:46;94723.50;;;7.78;73.32
35892;BME280;21993;42.672;23.296;2023-03-04T07:11:13;94722.31;;;7.82;73.14
35892;BME280;21993;42.672;23.296;2023-03-04T07:13:38;94734.53;;;7.81;72.79
35892;BME280;21993;42.672;23.296;2023-03-04T07:16:09;94719.00;;;7.91;71.90
35892;BME280;21993;42.672;23.296;2023-03-04T07:18:35;94730.63;;;7.87;72.42
35892;BME280;21993;42.672;23.296;2023-03-04T07:21:01;94729.19;;;7.83;72.28
35892;BME280;21993;42.672;23.296;2023-03-04T07:23:27;94722.53;;;7.90;72.67
35892;BME280;21993;42.672;23.296;2023-03-04T07:25:52;94731.34;;;8.00;71.78
35892;BME280;21993;42.672;23.296;2023-03-04T07:28:17;94734.16;;;7.97;71.33
35892;BME280;21993;42.672;23.296;2023-03-04T07:30:43;94736.19;;;8.05;71.17
35892;BME280;21993;42.672;23.296;2023-03-04T07:33:09;94735.00;;;8.09;71.36
35892;BME280;21993;42.672;23.296;2023-03-04T07:35:35;94733.34;;;8.08;71.25
35892;BME280;21993;42.672;23.296;2023-03-04T07:38:00;94724.56;;;8.09;71.21
35892;BME280;21993;42.672;23.296;2023-03-04T07:40:26;94735.47;;;8.03;71.55
35892;BME280;21993;42.672;23.296;2023-03-04T07:42:52;94734.91;;;7.99;71.81
35892;BME280;21993;42.672;23.296;2023-03-04T07:45:19;94730.75;;;8.08;72.28
35892;BME280;21993;42.672;23.296;2023-03-04T07:47:44;94735.34;;;8.15;71.53
35892;BME280;21993;42.672;23.296;2023-03-04T07:50:11;94726.69;;;8.26;70.64
35892;BME280;21993;42.672;23.296;2023-03-04T07:52:42;94727.03;;;8.22;70.27
35892;BME280;21993;42.672;23.296;2023-03-04T07:55:11;94728.22;;;8.17;70.55
35892;BME280;21993;42.672;23.296;2023-03-04T07:57:41;94711.59;;;8.18;70.70
35892;BME280;21993;42.672;23.296;2023-03-04T08:00:09;94716.34;;;8.25;70.91
35892;BME280;21993;42.672;23.296;2023-03-04T08:02:34;94718.56;;;8.40;70.24
35892;BME280;21993;42.672;23.296;2023-03-04T08:05:00;94718.47;;;8.42;70.42
35892;BME280;21993;42.672;23.296;2023-03-04T08:07:25;94718.69;;;8.50;69.12
35892;BME280;21993;42.672;23.296;2023-03-04T08:09:51;94718.22;;;8.45;68.79
35892;BME280;21993;42.672;23.296;2023-03-04T08:12:16;94718.19;;;8.56;69.17
35892;BME280;21993;42.672;23.296;2023-03-04T08:14:42;94712.63;;;8.50;69.11
35892;BME280;21993;42.672;23.296;2023-03-04T08:17:07;94716.69;;;8.42;69.56
35892;BME280;21993;42.672;23.296;2023-03-04T08:19:34;94721.75;;;8.55;68.82
35892;BME280;21993;42.672;23.296;2023-03-04T08:21:59;94709.63;;;8.54;68.37
35892;BME280;21993;42.672;23.296;2023-03-04T08:24:25;94719.28;;;8.54;69.00
35892;BME280;21993;42.672;23.296;2023-03-04T08:26:50;94713.34;;;8.52;69.22
35892;BME280;21993;42.672;23.296;2023-03-04T08:29:18;94714.13;;;8.63;69.16
35892;BME280;21993;42.672;23.296;2023-03-04T08:31:46;94703.78;;;8.62;68.92
35892;BME280;21993;42.672;23.296;2023-03-04T08:34:12;94708.16;;;8.72;68.11
35892;BME280;21993;42.672;23.296;2023-03-04T08:36:39;94709.06;;;8.83;67.52
35892;BME280;21993;42.672;23.296;2023-03-04T08:39:04;94703.81;;;8.83;67.11
35892;BME280;21993;42.672;23.296;2023-03-04T08:41:30;94705.81;;;8.90;67.07
35892;BME280;21993;42.672;23.296;2023-03-04T08:43:56;94701.16;;;8.94;66.59
35892;BME280;21993;42.672;23.296;2023-03-04T08:46:21;94710.22;;;8.90;66.34
35892;BME280;21993;42.672;23.296;2023-03-04T08:48:47;94699.81;;;8.99;66.13
35892;BME280;21993;42.672;23.296;2023-03-04T08:51:14;94704.22;;;8.99;66.99
35892;BME280;21993;42.672;23.296;2023-03-04T08:53:40;94700.69;;;9.00;66.51
35892;BME280;21993;42.672;23.296;2023-03-04T08:56:07;94698.75;;;9.02;66.32
35892;BME280;21993;42.672;23.296;2023-03-04T08:58:32;94701.16;;;9.15;66.41
35892;BME280;21993;42.672;23.296;2023-03-04T09:00:59;94703.03;;;9.03;66.80
35892;BME280;21993;42.672;23.296;2023-03-04T09:03:26;94697.19;;;8.99;66.88
35892;BME280;21993;42.672;23.296;2023-03-04T09:05:51;94693.88;;;8.97;66.46
35892;BME280;21993;42.672;23.296;2023-03-04T09:08:17;94691.59;;;9.04;66.36
35892;BME280;21993;42.672;23.296;2023-03-04T09:10:44;94696.63;;;8.96;66.92
35892;BME280;21993;42.672;23.296;2023-03-04T09:13:11;94693.25;;;9.05;66.90
35892;BME280;21993;42.672;23.296;2023-03-04T09:15:43;94689.50;;;9.19;66.48
35892;BME280;21993;42.672;23.296;2023-03-04T09:18:09;94678.38;;;9.26;65.97
35892;BME280;21993;42.672;23.296;2023-03-04T09:20:34;94689.38;;;9.20;65.53
35892;BME280;21993;42.672;23.296;2023-03-04T09:22:59;94686.19;;;9.17;65.34
35892;BME280;21993;42.672;23.296;2023-03-04T09:25:25;94680.94;;;9.17;65.17
35892;BME280;21993;42.672;23.296;2023-03-04T09:27:50;94683.66;;;9.15;65.89
35892;BME280;21993;42.672;23.296;2023-03-04T09:30:16;94674.47;;;9.21;65.10
35892;BME280;21993;42.672;23.296;2023-03-04T09:32:42;94673.28;;;9.25;65.46
35892;BME280;21993;42.672;23.296;2023-03-04T09:35:07;94672.03;;;9.50;64.29
35892;BME280;21993;42.672;23.296;2023-03-04T09:37:34;94674.78;;;9.48;64.15
35892;BME280;21993;42.672;23.296;2023-03-04T09:40:00;94675.59;;;9.49;64.84
35892;BME280;21993;42.672;23.296;2023-03-04T09:42:42;94674.06;;;9.67;64.60
35892;BME280;21993;42.672;23.296;2023-03-04T09:45:14;94669.69;;;9.77;63.65
35892;BME280;21993;42.672;23.296;2023-03-04T09:47:40;94663.13;;;9.93;63.36
35892;BME280;21993;42.672;23.296;2023-03-04T09:50:10;94668.84;;;10.17;62.47
35892;BME280;21993;42.672;23.296;2023-03-04T09:55:30;94660.91;;;10.38;61.89
35892;BME280;21993;42.672;23.296;2023-03-04T10:01:28;94651.13;;;10.50;61.46
35892;BME280;21993;42.672;23.296;2023-03-04T10:04:02;94653.50;;;10.53;60.80
35892;BME280;21993;42.672;23.296;2023-03-04T10:06:31;94647.81;;;10.57;60.69
35892;BME280;21993;42.672;23.296;2023-03-04T10:09:05;94638.56;;;10.82;59.95
35892;BME280;21993;42.672;23.296;2023-03-04T10:11:45;94645.72;;;10.99;59.84
35892;BME280;21993;42.672;23.296;2023-03-04T10:17:18;94640.75;;;11.06;60.00
35892;BME280;21993;42.672;23.296;2023-03-04T10:22:25;94622.66;;;11.13;58.72
35892;BME280;21993;42.672;23.296;2023-03-04T10:24:57;94624.28;;;11.14;58.54
35892;BME280;21993;42.672;23.296;2023-03-04T10:27:23;94619.97;;;11.32;59.29
35892;BME280;21993;42.672;23.296;2023-03-04T10:29:50;94618.72;;;11.36;59.18
35892;BME280;21993;42.672;23.296;2023-03-04T10:32:18;94618.47;;;11.30;58.95
35892;BME280;21993;42.672;23.296;2023-03-04T10:34:45;94608.34;;;11.25;59.32
35892;BME280;21993;42.672;23.296;2023-03-04T10:37:10;94608.47;;;11.33;59.23
35892;BME280;21993;42.672;23.296;2023-03-04T10:39:41;94607.97;;;11.20;59.16
35892;BME280;21993;42.672;23.296;2023-03-04T10:44:51;94600.06;;;11.30;58.88
35892;BME280;21993;42.672;23.296;2023-03-04T10:47:16;94594.81;;;11.30;58.71
35892;BME280;21993;42.672;23.296;2023-03-04T10:49:53;94594.50;;;11.33;59.01
35892;BME280;21993;42.672;23.296;2023-03-04T10:54:58;94580.91;;;11.00;59.47
35892;BME280;21993;42.672;23.296;2023-03-04T10:57:33;94587.59;;;10.56;60.49
35892;BME280;21993;42.672;23.296;2023-03-04T11:00:27;94578.16;;;10.82;60.36
35892;BME280;21993;42.672;23.296;2023-03-04T11:03:22;94572.91;;;10.92;60.30
35892;BME280;21993;42.672;23.296;2023-03-04T11:05:50;94567.34;;;11.05;59.77
35892;BME280;21993;42.672;23.296;2023-03-04T11:08:20;94565.56;;;11.05;59.94
35892;BME280;21993;42.672;23.296;2023-03-04T11:10:46;94564.34;;;10.90;60.11
35892;BME280;21993;42.672;23.296;2023-03-04T11:13:16;94557.25;;;11.00;59.51
35892;BME280;21993;42.672;23.296;2023-03-04T11:15:52;94550.22;;;11.00;59.45
35892;BME280;21993;42.672;23.296;2023-03-04T11:18:26;94557.16;;;11.02;60.02
35892;BME280;21993;42.672;23.296;2023-03-04T11:20:55;94551.34;;;10.98;60.22
35892;BME280;21993;42.672;23.296;2023-03-04T11:26:13;94538.31;;;11.06;60.33
35892;BME280;21993;42.672;23.296;2023-03-04T11:34:24;94528.72;;;11.24;60.17
35892;BME280;21993;42.672;23.296;2023-03-04T11:36:56;94529.19;;;11.10;60.27
35892;BME280;21993;42.672;23.296;2023-03-04T11:39:53;94516.84;;;11.20;60.64
35892;BME280;21993;42.672;23.296;2023-03-04T11:42:43;94528.63;;;11.07;60.54
35892;BME280;21993;42.672;23.296;2023-03-04T11:45:13;94514.97;;;11.03;60.99
35892;BME280;21993;42.672;23.296;2023-03-04T11:55:58;94513.31;;;11.02;60.67
35892;BME280;21993;42.672;23.296;2023-03-04T12:01:08;94505.47;;;10.83;60.21
35892;BME280;21993;42.672;23.296;2023-03-04T12:17:53;94497.22;;;10.78;61.17
35892;BME280;21993;42.672;23.296;2023-03-04T12:44:23;94467.91;;;10.73;60.70
35892;BME280;21993;42.672;23.296;2023-03-04T12:47:19;94461.53;;;10.85;60.17
35892;BME280;21993;42.672;23.296;2023-03-04T12:52:58;94455.63;;;10.73;60.44
35892;BME280;21993;42.672;23.296;2023-03-04T12:55:37;94451.59;;;10.79;60.42
35892;BME280;21993;42.672;23.296;2023-03-04T12:58:04;94445.94;;;10.74;60.55
35892;BME280;21993;42.672;23.296;2023-03-04T13:03:23;94430.31;;;10.82;59.94
35892;BME280;21993;42.672;23.296;2023-03-04T13:05:55;94443.28;;;10.83;60.28
35892;BME280;21993;42.672;23.296;2023-03-04T13:16:50;94429.16;;;10.94;59.05
35892;BME280;21993;42.672;23.296;2023-03-04T13:22:31;94427.06;;;10.97;59.76
35892;BME280;21993;42.672;23.296;2023-03-04T13:24:58;94411.59;;;10.94;60.58
35892;BME280;21993;42.672;23.296;2023-03-04T13:27:49;94415.59;;;10.98;60.64
35892;BME280;21993;42.672;23.296;2023-03-04T13:41:13;94410.69;;;10.86;60.38
35892;BME280;21993;42.672;23.296;2023-03-04T13:53:50;94397.22;;;10.61;61.51
35892;BME280;21993;42.672;23.296;2023-03-04T13:58:42;94391.63;;;10.74;61.94
35892;BME280;21993;42.672;23.296;2023-03-04T14:01:25;94399.91;;;10.79;62.43
35892;BME280;21993;42.672;23.296;2023-03-04T14:03:50;94397.25;;;10.89;62.26
35892;BME280;21993;42.672;23.296;2023-03-04T14:06:20;94398.78;;;10.82;62.11
35892;BME280;21993;42.672;23.296;2023-03-04T14:08:47;94385.94;;;10.88;62.17
35892;BME280;21993;42.672;23.296;2023-03-04T14:11:39;94386.91;;;10.87;62.05
35892;BME280;21993;42.672;23.296;2023-03-04T14:14:13;94372.75;;;10.98;61.15
35892;BME280;21993;42.672;23.296;2023-03-04T14:19:28;94386.75;;;10.89;61.35
35892;BME280;21993;42.672;23.296;2023-03-04T14:21:56;94376.25;;;10.89;61.28
35892;BME280;21993;42.672;23.296;2023-03-04T14:24:22;94374.13;;;10.92;61.19
35892;BME280;21993;42.672;23.296;2023-03-04T14:26:48;94373.03;;;10.95;61.21
35892;BME280;21993;42.672;23.296;2023-03-04T14:29:25;94366.56;;;10.89;61.10
35892;BME280;21993;42.672;23.296;2023-03-04T14:31:52;94362.53;;;10.95;61.41
35892;BME280;21993;42.672;23.296;2023-03-04T14:34:34;94364.34;;;10.94;61.62
35892;BME280;21993;42.672;23.296;2023-03-04T14:37:01;94363.06;;;10.98;61.24
35892;BME280;21993;42.672;23.296;2023-03-04T14:39:31;94366.25;;;11.02;61.29
35892;BME280;21993;42.672;23.296;2023-03-04T14:42:11;94363.09;;;11.16;61.30
35892;BME280;21993;42.672;23.296;2023-03-04T14:44:49;94360.41;;;11.26;60.28
35892;BME280;21993;42.672;23.296;2023-03-04T14:49:41;94357.41;;;11.21;60.62
35892;BME280;21993;42.672;23.296;2023-03-04T14:52:38;94350.88;;;11.25;60.70
35892;BME280;21993;42.672;23.296;2023-03-04T14:57:46;94343.97;;;11.42;60.64
35892;BME280;21993;42.672;23.296;2023-03-04T15:03:22;94343.47;;;11.38;59.96
35892;BME280;21993;42.672;23.296;2023-03-04T15:05:49;94346.25;;;11.37;60.21
35892;BME280;21993;42.672;23.296;2023-03-04T15:08:26;94337.63;;;11.44;59.91
35892;BME280;21993;42.672;23.296;2023-03-04T15:10:55;94342.63;;;11.38;60.60